sensor_id;sensor_type;location;lat;lon;timestamp;P1;durP1;ratioP1;P2;durP2;ratioP2
37241;SDS011;23135;51.078;12.108;2023-03-13T00:03:47;12.25;;;1.45;;
37241;SDS011;23135;51.078;12.108;2023-03-13T00:06:13;8.88;;;0.65;;
37241;SDS011;23135;51.078;12.108;2023-03-13T00:08:39;16.05;;;2.90;;
37241;SDS011;23135;51.078;12.108;2023-03-13T00:11:06;14.45;;;2.50;;
37241;SDS011;23135;51.078;12.108;2023-03-13T00:13:34;15.55;;;2.30;;
37241;SDS011;23135;51.078;12.108;2023-03-13T00:16:00;9.65;;;2.28;;
37241;SDS011;23135;51.078;12.108;2023-03-13T00:18:27;16.15;;;1.85;;
37241;SDS011;23135;51.078;12.108;2023-03-13T00:23:25;13.23;;;1.95;;
37241;SDS011;23135;51.078;12.108;2023-03-13T00:25:57;11.35;;;0.95;;
37241;SDS011;23135;51.078;12.108;2023-03-13T00:28:26;20.33;;;1.88;;
37241;SDS011;23135;51.078;12.108;2023-03-13T00:31:00;8.90;;;1.40;;
37241;SDS011;23135;51.078;12.108;2023-03-13T00:33:27;21.35;;;3.20;;
37241;SDS011;23135;51.078;12.108;2023-03-13T00:35:57;12.98;;;1.98;;
37241;SDS011;23135;51.078;12.108;2023-03-13T00:38:23;14.82;;;2.33;;
37241;SDS011;23135;51.078;12.108;2023-03-13T00:40:49;23.92;;;1.67;;
37241;SDS011;23135;51.078;12.108;2023-03-13T00:43:22;11.93;;;1.42;;
37241;SDS011;23135;51.078;12.108;2023-03-13T00:45:47;24.67;;;3.58;;
37241;SDS011;23135;51.078;12.108;2023-03-13T00:48:13;14.82;;;1.27;;
37241;SDS011;23135;51.078;12.108;2023-03-13T00:50:38;15.60;;;1.75;;
37241;SDS011;23135;51.078;12.108;2023-03-13T00:53:04;23.25;;;3.95;;
37241;SDS011;23135;51.078;12.108;2023-03-13T00:55:29;10.10;;;2.20;;
37241;SDS011;23135;51.078;12.108;2023-03-13T00:57:55;19.13;;;1.85;;
37241;SDS011;23135;51.078;12.108;2023-03-13T01:00:20;13.90;;;1.60;;
37241;SDS011;23135;51.078;12.108;2023-03-13T01:02:46;14.40;;;1.30;;
37241;SDS011;23135;51.078;12.108;2023-03-13T01:05:11;17.67;;;1.48;;
37241;SDS011;23135;51.078;12.108;2023-03-13T01:07:37;14.45;;;1.48;;
37241;SDS011;23135;51.078;12.108;2023-03-13T01:10:03;20.98;;;2.15;;
37241;SDS011;23135;51.078;12.108;2023-03-13T01:12:28;17.10;;;1.98;;
37241;SDS011;23135;51.078;12.108;2023-03-13T01:14:54;14.73;;;1.45;;
37241;SDS011;23135;51.078;12.108;2023-03-13T01:17:20;8.63;;;1.20;;
37241;SDS011;23135;51.078;12.108;2023-03-13T01:19:45;13.77;;;1.10;;
37241;SDS011;23135;51.078;12.108;2023-03-13T01:22:11;17.40;;;2.33;;
37241;SDS011;23135;51.078;12.108;2023-03-13T01:24:36;17.27;;;2.33;;
37241;SDS011;23135;51.078;12.108;2023-03-13T01:27:02;20.30;;;3.22;;
37241;SDS011;23135;51.078;12.108;2023-03-13T01:29:27;12.20;;;1.50;;
37241;SDS011;23135;51.078;12.108;2023-03-13T01:31:53;14.82;;;2.45;;
37241;SDS011;23135;51.078;12.108;2023-03-13T01:34:18;15.18;;;1.23;;
37241;SDS011;23135;51.078;12.108;2023-03-13T01:36:44;14.43;;;1.88;;
37241;SDS011;23135;51.078;12.108;2023-03-13T01:39:14;21.42;;;3.08;;
37241;SDS011;23135;51.078;12.108;2023-03-13T01:41:40;8.60;;;2.00;;
37241;SDS011;23135;51.078;12.108;2023-03-13T01:44:09;19.90;;;2.40;;
37241;SDS011;23135;51.078;12.108;2023-03-13T01:46:48;13.13;;;1.30;;
37241;SDS011;23135;51.078;12.108;2023-03-13T01:49:16;12.27;;;1.45;;
37241;SDS011;23135;51.078;12.108;2023-03-13T01:51:45;16.27;;;1.45;;
37241;SDS011;23135;51.078;12.108;2023-03-13T01:59:28;8.00;;;1.30;;
37241;SDS011;23135;51.078;12.108;2023-03-13T02:01:58;13.13;;;1.30;;
37241;SDS011;23135;51.078;12.108;2023-03-13T02:04:26;21.02;;;4.45;;
37241;SDS011;23135;51.078;12.108;2023-03-13T02:06:59;11.20;;;1.77;;
37241;SDS011;23135;51.078;12.108;2023-03-13T02:09:28;14.68;;;1.67;;
37241;SDS011;23135;51.078;12.108;2023-03-13T02:11:56;19.45;;;2.42;;
37241;SDS011;23135;51.078;12.108;2023-03-13T02:14:27;14.27;;;1.40;;
37241;SDS011;23135;51.078;12.108;2023-03-13T02:16:56;23.55;;;2.40;;
37241;SDS011;23135;51.078;12.108;2023-03-13T02:19:26;16.15;;;2.15;;
37241;SDS011;23135;51.078;12.108;2023-03-13T02:22:05;19.35;;;2.70;;
37241;SDS011;23135;51.078;12.108;2023-03-13T02:27:04;13.02;;;2.08;;
37241;SDS011;23135;51.078;12.108;2023-03-13T02:29:29;12.27;;;1.98;;
37241;SDS011;23135;51.078;12.108;2023-03-13T02:31:55;19.77;;;1.83;;
37241;SDS011;23135;51.078;12.108;2023-03-13T02:34:21;6.88;;;0.90;;
37241;SDS011;23135;51.078;12.108;2023-03-13T02:36:51;22.55;;;3.13;;
37241;SDS011;23135;51.078;12.108;2023-03-13T02:39:17;17.60;;;3.25;;
37241;SDS011;23135;51.078;12.108;2023-03-13T02:41:45;16.52;;;2.17;;
37241;SDS011;23135;51.078;12.108;2023-03-13T02:44:12;10.23;;;1.40;;
37241;SDS011;23135;51.078;12.108;2023-03-13T02:46:44;13.05;;;1.10;;
37241;SDS011;23135;51.078;12.108;2023-03-13T02:49:32;13.82;;;2.80;;
37241;SDS011;23135;51.078;12.108;2023-03-13T02:52:43;29.40;;;2.03;;
37241;SDS011;23135;51.078;12.108;2023-03-13T02:54:55;22.02;;;2.80;;
37241;SDS011;23135;51.078;12.108;2023-03-13T02:57:24;17.40;;;1.10;;
37241;SDS011;23135;51.078;12.108;2023-03-13T02:59:50;14.35;;;2.30;;
37241;SDS011;23135;51.078;12.108;2023-03-13T03:02:15;22.98;;;2.33;;
37241;SDS011;23135;51.078;12.108;2023-03-13T03:04:41;14.07;;;2.08;;
37241;SDS011;23135;51.078;12.108;2023-03-13T03:07:06;15.25;;;1.88;;
37241;SDS011;23135;51.078;12.108;2023-03-13T03:09:32;15.57;;;1.23;;
37241;SDS011;23135;51.078;12.108;2023-03-13T03:11:57;12.65;;;1.98;;
37241;SDS011;23135;51.078;12.108;2023-03-13T03:14:23;15.77;;;1.25;;
37241;SDS011;23135;51.078;12.108;2023-03-13T03:16:48;16.38;;;2.13;;
37241;SDS011;23135;51.078;12.108;2023-03-13T03:19:14;14.32;;;2.80;;
37241;SDS011;23135;51.078;12.108;2023-03-13T03:21:40;12.27;;;1.50;;
37241;SDS011;23135;51.078;12.108;2023-03-13T03:24:05;15.23;;;2.60;;
37241;SDS011;23135;51.078;12.108;2023-03-13T03:26:31;12.32;;;1.88;;
37241;SDS011;23135;51.078;12.108;2023-03-13T03:28:57;22.77;;;2.45;;
37241;SDS011;23135;51.078;12.108;2023-03-13T03:31:22;15.13;;;2.00;;
37241;SDS011;23135;51.078;12.108;2023-03-13T03:33:48;8.85;;;0.93;;
37241;SDS011;23135;51.078;12.108;2023-03-13T03:36:15;15.45;;;1.90;;
37241;SDS011;23135;51.078;12.108;2023-03-13T03:38:43;18.05;;;1.27;;
37241;SDS011;23135;51.078;12.108;2023-03-13T03:41:10;20.85;;;2.90;;
37241;SDS011;23135;51.078;12.108;2023-03-13T03:43:37;18.67;;;2.80;;
37241;SDS011;23135;51.078;12.108;2023-03-13T03:46:04;18.42;;;1.65;;
37241;SDS011;23135;51.078;12.108;2023-03-13T03:48:30;14.77;;;1.17;;
37241;SDS011;23135;51.078;12.108;2023-03-13T03:50:55;17.52;;;1.42;;
37241;SDS011;23135;51.078;12.108;2023-03-13T03:53:21;18.42;;;2.55;;
37241;SDS011;23135;51.078;12.108;2023-03-13T03:55:47;16.73;;;1.17;;
37241;SDS011;23135;51.078;12.108;2023-03-13T03:58:13;19.25;;;2.92;;
37241;SDS011;23135;51.078;12.108;2023-03-13T04:00:38;17.42;;;1.52;;
37241;SDS011;23135;51.078;12.108;2023-03-13T04:03:07;26.98;;;2.15;;
37241;SDS011;23135;51.078;12.108;2023-03-13T04:05:32;13.50;;;1.10;;
37241;SDS011;23135;51.078;12.108;2023-03-13T04:07:58;10.90;;;1.15;;
37241;SDS011;23135;51.078;12.108;2023-03-13T04:10:23;20.60;;;1.42;;
37241;SDS011;23135;51.078;12.108;2023-03-13T04:12:49;8.82;;;1.08;;
37241;SDS011;23135;51.078;12.108;2023-03-13T04:15:15;12.98;;;1.48;;
37241;SDS011;23135;51.078;12.108;2023-03-13T04:17:53;12.35;;;1.88;;
37241;SDS011;23135;51.078;12.108;2023-03-13T04:20:19;16.02;;;1.45;;
37241;SDS011;23135;51.078;12.108;2023-03-13T04:22:44;14.15;;;1.10;;
37241;SDS011;23135;51.078;12.108;2023-03-13T04:25:10;11.05;;;1.65;;
37241;SDS011;23135;51.078;12.108;2023-03-13T04:27:36;15.10;;;1.00;;
37241;SDS011;23135;51.078;12.108;2023-03-13T04:30:01;13.40;;;1.20;;
37241;SDS011;23135;51.078;12.108;2023-03-13T04:32:28;18.83;;;1.60;;
37241;SDS011;23135;51.078;12.108;2023-03-13T04:34:54;17.30;;;1.10;;
37241;SDS011;23135;51.078;12.108;2023-03-13T04:37:19;14.40;;;2.08;;
37241;SDS011;23135;51.078;12.108;2023-03-13T04:39:45;12.65;;;2.72;;
37241;SDS011;23135;51.078;12.108;2023-03-13T04:42:11;11.40;;;1.13;;
37241;SDS011;23135;51.078;12.108;2023-03-13T04:44:37;16.77;;;2.03;;
37241;SDS011;23135;51.078;12.108;2023-03-13T04:47:03;16.58;;;2.90;;
37241;SDS011;23135;51.078;12.108;2023-03-13T04:49:29;11.15;;;2.17;;
37241;SDS011;23135;51.078;12.108;2023-03-13T04:51:54;14.73;;;2.50;;
37241;SDS011;23135;51.078;12.108;2023-03-13T04:54:20;14.77;;;1.17;;
37241;SDS011;23135;51.078;12.108;2023-03-13T04:56:46;14.02;;;1.52;;
37241;SDS011;23135;51.078;12.108;2023-03-13T04:59:13;15.90;;;1.65;;
37241;SDS011;23135;51.078;12.108;2023-03-13T05:01:39;11.98;;;0.88;;
37241;SDS011;23135;51.078;12.108;2023-03-13T05:04:05;19.10;;;1.73;;
37241;SDS011;23135;51.078;12.108;2023-03-13T05:06:31;16.23;;;2.30;;
37241;SDS011;23135;51.078;12.108;2023-03-13T05:08:56;20.05;;;2.55;;
37241;SDS011;23135;51.078;12.108;2023-03-13T05:11:22;15.32;;;2.40;;
37241;SDS011;23135;51.078;12.108;2023-03-13T05:13:48;10.43;;;1.85;;
37241;SDS011;23135;51.078;12.108;2023-03-13T05:16:13;13.68;;;0.55;;
37241;SDS011;23135;51.078;12.108;2023-03-13T05:18:39;15.45;;;2.50;;
37241;SDS011;23135;51.078;12.108;2023-03-13T05:21:05;18.52;;;1.77;;
37241;SDS011;23135;51.078;12.108;2023-03-13T05:23:31;13.13;;;0.63;;
37241;SDS011;23135;51.078;12.108;2023-03-13T05:25:58;22.23;;;1.73;;
37241;SDS011;23135;51.078;12.108;2023-03-13T05:28:24;14.20;;;1.00;;
37241;SDS011;23135;51.078;12.108;2023-03-13T05:30:49;9.77;;;0.47;;
37241;SDS011;23135;51.078;12.108;2023-03-13T05:33:15;11.02;;;1.23;;
37241;SDS011;23135;51.078;12.108;2023-03-13T05:35:41;13.00;;;1.30;;
37241;SDS011;23135;51.078;12.108;2023-03-13T05:38:07;5.70;;;0.30;;
37241;SDS011;23135;51.078;12.108;2023-03-13T05:40:32;13.40;;;0.95;;
37241;SDS011;23135;51.078;12.108;2023-03-13T05:42:58;9.13;;;1.83;;
37241;SDS011;23135;51.078;12.108;2023-03-13T05:45:23;13.40;;;0.82;;
37241;SDS011;23135;51.078;12.108;2023-03-13T05:47:49;7.95;;;0.90;;
37241;SDS011;23135;51.078;12.108;2023-03-13T05:50:15;6.65;;;0.70;;
37241;SDS011;23135;51.078;12.108;2023-03-13T05:52:41;10.10;;;2.25;;
37241;SDS011;23135;51.078;12.108;2023-03-13T05:55:06;5.53;;;0.80;;
37241;SDS011;23135;51.078;12.108;2023-03-13T05:57:32;8.65;;;0.75;;
37241;SDS011;23135;51.078;12.108;2023-03-13T05:59:58;10.38;;;1.52;;
37241;SDS011;23135;51.078;12.108;2023-03-13T06:02:23;12.32;;;0.95;;
37241;SDS011;23135;51.078;12.108;2023-03-13T06:04:49;10.43;;;1.67;;
37241;SDS011;23135;51.078;12.108;2023-03-13T06:07:15;12.32;;;1.55;;
37241;SDS011;23135;51.078;12.108;2023-03-13T06:09:40;12.90;;;1.35;;
37241;SDS011;23135;51.078;12.108;2023-03-13T06:12:09;11.88;;;0.45;;
37241;SDS011;23135;51.078;12.108;2023-03-13T06:14:35;13.75;;;1.23;;
37241;SDS011;23135;51.078;12.108;2023-03-13T06:17:02;8.50;;;0.70;;
37241;SDS011;23135;51.078;12.108;2023-03-13T06:19:28;11.20;;;0.65;;
37241;SDS011;23135;51.078;12.108;2023-03-13T06:21:54;12.85;;;0.50;;
37241;SDS011;23135;51.078;12.108;2023-03-13T06:24:20;9.50;;;0.80;;
37241;SDS011;23135;51.078;12.108;2023-03-13T06:26:48;7.78;;;0.70;;
37241;SDS011;23135;51.078;12.108;2023-03-13T06:29:14;13.40;;;0.80;;
37241;SDS011;23135;51.078;12.108;2023-03-13T06:31:40;13.25;;;0.50;;
37241;SDS011;23135;51.078;12.108;2023-03-13T06:34:06;14.95;;;0.43;;
37241;SDS011;23135;51.078;12.108;2023-03-13T06:36:34;12.13;;;1.77;;
37241;SDS011;23135;51.078;12.108;2023-03-13T06:39:00;5.03;;;0.63;;
37241;SDS011;23135;51.078;12.108;2023-03-13T06:41:26;3.70;;;0.30;;
37241;SDS011;23135;51.078;12.108;2023-03-13T06:43:51;4.32;;;0.32;;
37241;SDS011;23135;51.078;12.108;2023-03-13T06:46:21;6.80;;;0.10;;
37241;SDS011;23135;51.078;12.108;2023-03-13T06:48:48;3.53;;;0.20;;
37241;SDS011;23135;51.078;12.108;2023-03-13T06:51:15;7.82;;;0.47;;
37241;SDS011;23135;51.078;12.108;2023-03-13T06:53:42;17.98;;;1.52;;
37241;SDS011;23135;51.078;12.108;2023-03-13T06:56:08;5.80;;;0.35;;
37241;SDS011;23135;51.078;12.108;2023-03-13T06:58:34;8.90;;;0.60;;
37241;SDS011;23135;51.078;12.108;2023-03-13T07:01:06;6.70;;;1.13;;
37241;SDS011;23135;51.078;12.108;2023-03-13T07:03:33;9.68;;;1.88;;
37241;SDS011;23135;51.078;12.108;2023-03-13T07:05:59;8.13;;;0.88;;
37241;SDS011;23135;51.078;12.108;2023-03-13T07:08:26;4.43;;;0.88;;
37241;SDS011;23135;51.078;12.108;2023-03-13T07:10:52;4.38;;;0.85;;
37241;SDS011;23135;51.078;12.108;2023-03-13T07:13:22;7.60;;;0.20;;
37241;SDS011;23135;51.078;12.108;2023-03-13T07:15:47;6.20;;;0.57;;
37241;SDS011;23135;51.078;12.108;2023-03-13T07:18:13;5.00;;;0.10;;
37241;SDS011;23135;51.078;12.108;2023-03-13T07:20:39;2.10;;;0.10;;
37241;SDS011;23135;51.078;12.108;2023-03-13T07:23:04;2.90;;;0.00;;
37241;SDS011;23135;51.078;12.108;2023-03-13T07:25:30;7.18;;;0.20;;
37241;SDS011;23135;51.078;12.108;2023-03-13T07:27:55;13.45;;;0.73;;
37241;SDS011;23135;51.078;12.108;2023-03-13T07:30:21;3.72;;;0.20;;
37241;SDS011;23135;51.078;12.108;2023-03-13T07:32:47;0.95;;;0.00;;
37241;SDS011;23135;51.078;12.108;2023-03-13T07:35:12;1.65;;;0.10;;
37241;SDS011;23135;51.078;12.108;2023-03-13T07:37:39;4.13;;;0.93;;
37241;SDS011;23135;51.078;12.108;2023-03-13T07:40:04;2.67;;;0.08;;
37241;SDS011;23135;51.078;12.108;2023-03-13T07:42:30;3.40;;;0.17;;
37241;SDS011;23135;51.078;12.108;2023-03-13T07:44:56;4.43;;;0.00;;
37241;SDS011;23135;51.078;12.108;2023-03-13T07:47:21;0.85;;;0.00;;
37241;SDS011;23135;51.078;12.108;2023-03-13T07:49:47;1.92;;;0.00;;
37241;SDS011;23135;51.078;12.108;2023-03-13T07:52:12;1.55;;;0.00;;
37241;SDS011;23135;51.078;12.108;2023-03-13T07:54:38;5.93;;;0.00;;
37241;SDS011;23135;51.078;12.108;2023-03-13T07:57:03;2.35;;;0.10;;
37241;SDS011;23135;51.078;12.108;2023-03-13T07:59:29;1.02;;;0.15;;
37241;SDS011;23135;51.078;12.108;2023-03-13T08:01:55;3.88;;;0.68;;
37241;SDS011;23135;51.078;12.108;2023-03-13T08:04:20;2.90;;;0.00;;
37241;SDS011;23135;51.078;12.108;2023-03-13T08:06:46;0.90;;;0.00;;
37241;SDS011;23135;51.078;12.108;2023-03-13T08:09:11;0.00;;;0.00;;
37241;SDS011;23135;51.078;12.108;2023-03-13T08:11:37;0.75;;;0.00;;
37241;SDS011;23135;51.078;12.108;2023-03-13T08:14:08;1.52;;;0.00;;
37241;SDS011;23135;51.078;12.108;2023-03-13T08:16:34;1.08;;;0.00;;
37241;SDS011;23135;51.078;12.108;2023-03-13T08:19:00;2.15;;;0.00;;
37241;SDS011;23135;51.078;12.108;2023-03-13T08:21:29;0.63;;;0.00;;
37241;SDS011;23135;51.078;12.108;2023-03-13T08:23:56;1.65;;;0.10;;
37241;SDS011;23135;51.078;12.108;2023-03-13T08:26:25;0.60;;;0.00;;
37241;SDS011;23135;51.078;12.108;2023-03-13T08:28:53;0.00;;;0.00;;
37241;SDS011;23135;51.078;12.108;2023-03-13T08:31:25;0.17;;;0.00;;
37241;SDS011;23135;51.078;12.108;2023-03-13T08:33:52;1.45;;;0.00;;
37241;SDS011;23135;51.078;12.108;2023-03-13T08:38:45;0.32;;;0.00;;
37241;SDS011;23135;51.078;12.108;2023-03-13T08:41:12;2.58;;;0.10;;
37241;SDS011;23135;51.078;12.108;2023-03-13T08:43:39;0.57;;;0.03;;
37241;SDS011;23135;51.078;12.108;2023-03-13T08:46:05;1.60;;;0.10;;
37241;SDS011;23135;51.078;12.108;2023-03-13T08:48:31;1.00;;;0.35;;
37241;SDS011;23135;51.078;12.108;2023-03-13T08:53:33;1.02;;;0.10;;
37241;SDS011;23135;51.078;12.108;2023-03-13T08:56:00;1.95;;;0.25;;
37241;SDS011;23135;51.078;12.108;2023-03-13T08:58:26;1.58;;;0.20;;
37241;SDS011;23135;51.078;12.108;2023-03-13T09:00:52;1.60;;;0.15;;
37241;SDS011;23135;51.078;12.108;2023-03-13T09:03:18;4.82;;;0.08;;
37241;SDS011;23135;51.078;12.108;2023-03-13T09:05:44;3.22;;;0.47;;
37241;SDS011;23135;51.078;12.108;2023-03-13T09:08:11;8.20;;;3.53;;
37241;SDS011;23135;51.078;12.108;2023-03-13T09:10:38;7.32;;;2.47;;
37241;SDS011;23135;51.078;12.108;2023-03-13T09:13:03;6.18;;;2.45;;
37241;SDS011;23135;51.078;12.108;2023-03-13T09:15:29;5.03;;;0.30;;
37241;SDS011;23135;51.078;12.108;2023-03-13T09:17:54;1.92;;;0.38;;
37241;SDS011;23135;51.078;12.108;2023-03-13T09:20:20;1.80;;;0.30;;
37241;SDS011;23135;51.078;12.108;2023-03-13T09:22:45;0.73;;;0.28;;
37241;SDS011;23135;51.078;12.108;2023-03-13T09:25:11;1.88;;;0.10;;
37241;SDS011;23135;51.078;12.108;2023-03-13T09:27:37;1.52;;;0.28;;
37241;SDS011;23135;51.078;12.108;2023-03-13T09:30:04;1.58;;;0.05;;
37241;SDS011;23135;51.078;12.108;2023-03-13T09:32:30;1.08;;;0.00;;
37241;SDS011;23135;51.078;12.108;2023-03-13T09:34:55;4.28;;;0.43;;
37241;SDS011;23135;51.078;12.108;2023-03-13T09:37:21;1.17;;;0.00;;
37241;SDS011;23135;51.078;12.108;2023-03-13T09:39:47;0.65;;;0.00;;
37241;SDS011;23135;51.078;12.108;2023-03-13T09:44:54;0.00;;;0.00;;
37241;SDS011;23135;51.078;12.108;2023-03-13T09:47:32;0.60;;;0.00;;
37241;SDS011;23135;51.078;12.108;2023-03-13T09:50:14;0.35;;;0.00;;
37241;SDS011;23135;51.078;12.108;2023-03-13T09:52:44;0.95;;;0.00;;
37241;SDS011;23135;51.078;12.108;2023-03-13T09:55:19;0.40;;;0.00;;
37241;SDS011;23135;51.078;12.108;2023-03-13T09:57:54;0.55;;;0.00;;
37241;SDS011;23135;51.078;12.108;2023-03-13T10:00:32;0.45;;;0.00;;
37241;SDS011;23135;51.078;12.108;2023-03-13T10:05:33;0.00;;;0.00;;
37241;SDS011;23135;51.078;12.108;2023-03-13T10:08:00;0.13;;;0.00;;
37241;SDS011;23135;51.078;12.108;2023-03-13T10:10:44;0.00;;;0.00;;
37241;SDS011;23135;51.078;12.108;2023-03-13T10:13:33;6.40;;;0.00;;
37241;SDS011;23135;51.078;12.108;2023-03-13T10:16:08;0.00;;;0.00;;
37241;SDS011;23135;51.078;12.108;2023-03-13T10:18:38;0.00;;;0.00;;
37241;SDS011;23135;51.078;12.108;2023-03-13T10:21:17;1.73;;;0.00;;
37241;SDS011;23135;51.078;12.108;2023-03-13T10:23:52;0.00;;;0.00;;
37241;SDS011;23135;51.078;12.108;2023-03-13T10:26:25;0.30;;;0.00;;
37241;SDS011;23135;51.078;12.108;2023-03-13T10:28:54;0.00;;;0.00;;
37241;SDS011;23135;51.078;12.108;2023-03-13T10:31:33;1.38;;;0.00;;
37241;SDS011;23135;51.078;12.108;2023-03-13T10:34:12;0.20;;;0.00;;
37241;SDS011;23135;51.078;12.108;2023-03-13T10:36:39;0.00;;;0.00;;
37241;SDS011;23135;51.078;12.108;2023-03-13T10:39:20;0.10;;;0.00;;
37241;SDS011;23135;51.078;12.108;2023-03-13T10:41:47;0.85;;;0.30;;
37241;SDS011;23135;51.078;12.108;2023-03-13T10:44:15;0.30;;;0.00;;
37241;SDS011;23135;51.078;12.108;2023-03-13T10:46:46;0.10;;;0.00;;
37241;SDS011;23135;51.078;12.108;2023-03-13T10:49:19;0.52;;;0.00;;
37241;SDS011;23135;51.078;12.108;2023-03-13T10:52:47;0.20;;;0.00;;
37241;SDS011;23135;51.078;12.108;2023-03-13T10:54:54;0.25;;;0.20;;
37241;SDS011;23135;51.078;12.108;2023-03-13T10:57:27;0.90;;;0.00;;
37241;SDS011;23135;51.078;12.108;2023-03-13T10:59:54;0.22;;;0.00;;
37241;SDS011;23135;51.078;12.108;2023-03-13T11:04:59;0.30;;;0.00;;
37241;SDS011;23135;51.078;12.108;2023-03-13T11:07:28;0.75;;;0.00;;
37241;SDS011;23135;51.078;12.108;2023-03-13T11:12:43;0.25;;;0.03;;
37241;SDS011;23135;51.078;12.108;2023-03-13T11:15:14;0.15;;;0.00;;
37241;SDS011;23135;51.078;12.108;2023-03-13T11:17:42;0.00;;;0.00;;
37241;SDS011;23135;51.078;12.108;2023-03-13T11:23:13;0.57;;;0.57;;
37241;SDS011;23135;51.078;12.108;2023-03-13T11:33:43;0.00;;;0.00;;
37241;SDS011;23135;51.078;12.108;2023-03-13T11:36:32;0.15;;;0.00;;
37241;SDS011;23135;51.078;12.108;2023-03-13T11:41:58;0.70;;;0.00;;
37241;SDS011;23135;51.078;12.108;2023-03-13T11:44:52;0.05;;;0.05;;
37241;SDS011;23135;51.078;12.108;2023-03-13T11:47:26;2.80;;;0.00;;
37241;SDS011;23135;51.078;12.108;2023-03-13T11:50:17;0.55;;;0.00;;
37241;SDS011;23135;51.078;12.108;2023-03-13T11:56:00;0.55;;;0.00;;
37241;SDS011;23135;51.078;12.108;2023-03-13T11:58:54;0.15;;;0.00;;
37241;SDS011;23135;51.078;12.108;2023-03-13T12:01:45;0.50;;;0.00;;
37241;SDS011;23135;51.078;12.108;2023-03-13T12:04:19;0.00;;;0.00;;
37241;SDS011;23135;51.078;12.108;2023-03-13T12:15:31;0.63;;;0.20;;
37241;SDS011;23135;51.078;12.108;2023-03-13T12:24:05;0.00;;;0.00;;
37241;SDS011;23135;51.078;12.108;2023-03-13T12:27:01;2.83;;;0.00;;
37241;SDS011;23135;51.078;12.108;2023-03-13T12:32:15;0.00;;;0.00;;
37241;SDS011;23135;51.078;12.108;2023-03-13T12:35:22;0.95;;;0.00;;
37241;SDS011;23135;51.078;12.108;2023-03-13T12:40:33;0.90;;;0.00;;
37241;SDS011;23135;51.078;12.108;2023-03-13T12:43:33;0.57;;;0.00;;
37241;SDS011;23135;51.078;12.108;2023-03-13T12:51:22;0.77;;;0.10;;
37241;SDS011;23135;51.078;12.108;2023-03-13T12:56:46;5.85;;;0.00;;
37241;SDS011;23135;51.078;12.108;2023-03-13T12:59:34;3.13;;;0.28;;
37241;SDS011;23135;51.078;12.108;2023-03-13T13:02:12;1.42;;;0.00;;
37241;SDS011;23135;51.078;12.108;2023-03-13T13:04:45;0.13;;;0.00;;
37241;SDS011;23135;51.078;12.108;2023-03-13T13:07:22;0.90;;;0.40;;
37241;SDS011;23135;51.078;12.108;2023-03-13T13:10:00;1.15;;;0.00;;
37241;SDS011;23135;51.078;12.108;2023-03-13T13:12:44;1.65;;;0.00;;
37241;SDS011;23135;51.078;12.108;2023-03-13T13:17:56;0.22;;;0.00;;
37241;SDS011;23135;51.078;12.108;2023-03-13T13:25:47;7.30;;;0.20;;
37241;SDS011;23135;51.078;12.108;2023-03-13T13:30:45;0.28;;;0.00;;
37241;SDS011;23135;51.078;12.108;2023-03-13T13:36:24;2.85;;;0.00;;
37241;SDS011;23135;51.078;12.108;2023-03-13T13:38:33;0.00;;;0.00;;
37241;SDS011;23135;51.078;12.108;2023-03-13T13:43:37;0.30;;;0.00;;
37241;SDS011;23135;51.078;12.108;2023-03-13T13:51:28;0.00;;;0.00;;
37241;SDS011;23135;51.078;12.108;2023-03-13T13:53:55;0.40;;;0.00;;
37241;SDS011;23135;51.078;12.108;2023-03-13T13:56:42;1.95;;;0.03;;
37241;SDS011;23135;51.078;12.108;2023-03-13T14:02:35;0.05;;;0.00;;
37241;SDS011;23135;51.078;12.108;2023-03-13T14:04:53;0.50;;;0.20;;
37241;SDS011;23135;51.078;12.108;2023-03-13T14:10:13;1.00;;;0.00;;
37241;SDS011;23135;51.078;12.108;2023-03-13T14:12:52;0.30;;;0.20;;
37241;SDS011;23135;51.078;12.108;2023-03-13T14:15:20;1.65;;;0.00;;
37241;SDS011;23135;51.078;12.108;2023-03-13T14:17:47;1.67;;;0.00;;
37241;SDS011;23135;51.078;12.108;2023-03-13T14:20:37;0.57;;;0.10;;
37241;SDS011;23135;51.078;12.108;2023-03-13T14:23:07;0.75;;;0.13;;
37241;SDS011;23135;51.078;12.108;2023-03-13T14:28:16;0.15;;;0.00;;
37241;SDS011;23135;51.078;12.108;2023-03-13T14:30:49;0.82;;;0.10;;
37241;SDS011;23135;51.078;12.108;2023-03-13T14:33:16;5.82;;;0.90;;
37241;SDS011;23135;51.078;12.108;2023-03-13T14:35:42;0.98;;;0.13;;
37241;SDS011;23135;51.078;12.108;2023-03-13T14:38:46;0.98;;;0.00;;
37241;SDS011;23135;51.078;12.108;2023-03-13T14:41:00;0.88;;;0.00;;
37241;SDS011;23135;51.078;12.108;2023-03-13T14:43:34;0.45;;;0.20;;
37241;SDS011;23135;51.078;12.108;2023-03-13T14:46:14;1.08;;;0.00;;
37241;SDS011;23135;51.078;12.108;2023-03-13T14:48:47;1.95;;;0.00;;
37241;SDS011;23135;51.078;12.108;2023-03-13T14:51:18;0.30;;;0.00;;
37241;SDS011;23135;51.078;12.108;2023-03-13T14:53:54;2.75;;;0.00;;
37241;SDS011;23135;51.078;12.108;2023-03-13T14:56:28;0.00;;;0.00;;
37241;SDS011;23135;51.078;12.108;2023-03-13T14:59:06;3.50;;;0.35;;
37241;SDS011;23135;51.078;12.108;2023-03-13T15:01:32;0.52;;;0.03;;
37241;SDS011;23135;51.078;12.108;2023-03-13T15:03:58;0.20;;;0.00;;
37241;SDS011;23135;51.078;12.108;2023-03-13T15:06:24;0.60;;;0.00;;
37241;SDS011;23135;51.078;12.108;2023-03-13T15:09:13;2.78;;;0.28;;
37241;SDS011;23135;51.078;12.108;2023-03-13T15:11:56;3.03;;;0.22;;
37241;SDS011;23135;51.078;12.108;2023-03-13T15:14:37;0.10;;;0.00;;
37241;SDS011;23135;51.078;12.108;2023-03-13T15:17:12;1.00;;;0.10;;
37241;SDS011;23135;51.078;12.108;2023-03-13T15:19:38;0.85;;;0.10;;
37241;SDS011;23135;51.078;12.108;2023-03-13T15:22:04;0.93;;;0.30;;
37241;SDS011;23135;51.078;12.108;2023-03-13T15:24:29;1.10;;;0.38;;
37241;SDS011;23135;51.078;12.108;2023-03-13T15:26:55;0.90;;;0.03;;
37241;SDS011;23135;51.078;12.108;2023-03-13T15:29:21;5.15;;;0.75;;
37241;SDS011;23135;51.078;12.108;2023-03-13T15:31:46;1.33;;;0.30;;
37241;SDS011;23135;51.078;12.108;2023-03-13T15:34:13;1.90;;;0.00;;
37241;SDS011;23135;51.078;12.108;2023-03-13T15:36:40;1.15;;;0.00;;
37241;SDS011;23135;51.078;12.108;2023-03-13T15:39:15;1.65;;;0.20;;
37241;SDS011;23135;51.078;12.108;2023-03-13T15:41:46;0.65;;;0.00;;
37241;SDS011;23135;51.078;12.108;2023-03-13T15:44:12;2.38;;;0.13;;
37241;SDS011;23135;51.078;12.108;2023-03-13T15:46:37;2.97;;;0.30;;
37241;SDS011;23135;51.078;12.108;2023-03-13T15:49:03;0.10;;;0.03;;
37241;SDS011;23135;51.078;12.108;2023-03-13T15:51:32;1.55;;;0.00;;
37241;SDS011;23135;51.078;12.108;2023-03-13T15:53:58;2.83;;;0.03;;
37241;SDS011;23135;51.078;12.108;2023-03-13T15:56:23;1.95;;;0.28;;
37241;SDS011;23135;51.078;12.108;2023-03-13T15:58:55;0.35;;;0.00;;
37241;SDS011;23135;51.078;12.108;2023-03-13T16:01:20;0.25;;;0.00;;
37241;SDS011;23135;51.078;12.108;2023-03-13T16:03:47;1.73;;;0.00;;
37241;SDS011;23135;51.078;12.108;2023-03-13T16:06:20;2.45;;;0.10;;
37241;SDS011;23135;51.078;12.108;2023-03-13T16:08:55;1.85;;;0.00;;
37241;SDS011;23135;51.078;12.108;2023-03-13T16:11:25;3.20;;;0.10;;
37241;SDS011;23135;51.078;12.108;2023-03-13T16:13:51;3.17;;;0.20;;
37241;SDS011;23135;51.078;12.108;2023-03-13T16:16:18;3.92;;;0.68;;
37241;SDS011;23135;51.078;12.108;2023-03-13T16:18:49;2.72;;;0.20;;
37241;SDS011;23135;51.078;12.108;2023-03-13T16:21:26;2.05;;;0.00;;
37241;SDS011;23135;51.078;12.108;2023-03-13T16:23:53;0.80;;;0.20;;